createdAt,value
2022-11-25T00:00:42.267Z,7.60
2022-11-25T00:02:14.290Z,7.59
2022-11-25T00:03:46.644Z,7.58
2022-11-25T00:05:18.530Z,7.58
2022-11-25T00:06:50.435Z,7.60
2022-11-25T00:08:22.277Z,7.59
2022-11-25T00:09:54.153Z,7.60
2022-11-25T00:11:26.325Z,7.61
2022-11-25T00:12:58.162Z,7.62
2022-11-25T00:14:30.112Z,7.63
2022-11-25T00:16:05.810Z,7.63
2022-11-25T00:17:37.742Z,7.62
2022-11-25T00:19:10.151Z,7.63
2022-11-25T00:20:41.982Z,7.63
2022-11-25T00:22:13.881Z,7.62
2022-11-25T00:23:46.070Z,7.60
2022-11-25T00:25:18.043Z,7.62
2022-11-25T00:26:50.003Z,7.61
2022-11-25T00:28:21.879Z,7.62
2022-11-25T00:29:53.694Z,7.61
2022-11-25T00:31:26.909Z,7.60
2022-11-25T00:32:58.794Z,7.60
2022-11-25T00:34:30.703Z,7.59
2022-11-25T00:36:03.261Z,7.60
2022-11-25T00:37:35.089Z,7.60
2022-11-25T00:39:16.887Z,7.59
2022-11-25T00:41:12.732Z,7.60
2022-11-25T00:43:03.220Z,7.58
2022-11-25T00:44:41.676Z,7.59
2022-11-25T00:46:16.938Z,7.57
2022-11-25T00:47:48.744Z,7.57
2022-11-25T00:49:20.623Z,7.56
2022-11-25T00:50:52.540Z,7.54
2022-11-25T00:52:25.521Z,7.54
2022-11-25T00:53:59.079Z,7.53
2022-11-25T00:55:51.179Z,7.51
2022-11-25T00:57:23.619Z,7.54
2022-11-25T00:58:55.564Z,7.54
2022-11-25T01:00:27.456Z,7.56
2022-11-25T01:01:59.513Z,7.55
2022-11-25T01:03:31.441Z,7.56
2022-11-25T01:05:03.665Z,7.54
2022-11-25T01:06:36.031Z,7.56
2022-11-25T01:08:07.921Z,7.58
2022-11-25T01:09:39.896Z,7.58
2022-11-25T01:11:12.746Z,7.59
2022-11-25T01:12:47.319Z,7.58
2022-11-25T01:14:19.596Z,7.58
2022-11-25T01:15:51.456Z,7.59
2022-11-25T01:17:23.313Z,7.62
2022-11-25T01:18:55.244Z,7.62
2022-11-25T01:20:27.162Z,7.62
2022-11-25T01:21:59.023Z,7.65
2022-11-25T01:23:30.928Z,7.66
2022-11-25T01:25:02.790Z,7.67
2022-11-25T01:26:35.399Z,7.66
2022-11-25T01:28:07.297Z,7.66
2022-11-25T01:29:41.774Z,7.64
2022-11-25T01:31:15.304Z,7.65
2022-11-25T01:32:47.128Z,7.62
2022-11-25T01:34:20.106Z,7.61
2022-11-25T01:35:52.002Z,7.59
2022-11-25T01:37:23.993Z,7.56
2022-11-25T01:38:56.856Z,7.55
2022-11-25T01:40:28.851Z,7.55
2022-11-25T01:42:01.154Z,7.54
2022-11-25T01:43:33.101Z,7.53
2022-11-25T01:45:28.520Z,7.53
2022-11-25T01:47:00.722Z,7.52
2022-11-25T01:48:38.635Z,7.52
2022-11-25T01:50:11.159Z,7.50
2022-11-25T01:51:53.789Z,7.50
2022-11-25T01:53:25.583Z,7.47
2022-11-25T01:55:20.877Z,7.46
2022-11-25T01:56:54.643Z,7.45
2022-11-25T01:58:27.433Z,7.46
2022-11-25T02:00:00.021Z,7.46
2022-11-25T02:01:31.962Z,7.46
2022-11-25T02:03:03.848Z,7.47
2022-11-25T02:04:36.255Z,7.46
2022-11-25T02:06:08.415Z,7.46
2022-11-25T02:07:41.571Z,7.46
2022-11-25T02:09:13.410Z,7.46
2022-11-25T02:10:45.386Z,7.46
2022-11-25T02:12:18.131Z,7.46
2022-11-25T02:13:50.213Z,7.43
2022-11-25T02:15:22.437Z,7.40
2022-11-25T02:16:54.303Z,7.37
2022-11-25T02:18:26.423Z,7.36
2022-11-25T02:20:00.137Z,7.36
2022-11-25T02:21:34.483Z,7.36
2022-11-25T02:23:09.275Z,7.35
2022-11-25T02:24:45.316Z,7.35
2022-11-25T02:26:17.481Z,7.35
2022-11-25T02:27:50.606Z,7.34
2022-11-25T02:29:22.446Z,7.35
2022-11-25T02:30:54.413Z,7.33
2022-11-25T02:32:26.295Z,7.33
2022-11-25T02:56:24.370Z,7.15
2022-11-25T02:57:56.284Z,7.13
2022-11-25T02:59:28.283Z,7.11
2022-11-25T03:01:00.259Z,7.11
2022-11-25T03:02:35.308Z,7.08
2022-11-25T03:04:07.314Z,7.07
2022-11-25T03:05:39.164Z,7.05
2022-11-25T03:07:11.353Z,7.00
2022-11-25T03:08:43.304Z,6.97
2022-11-25T03:10:15.300Z,6.98
2022-11-25T03:12:05.574Z,6.96
2022-11-25T03:13:37.475Z,6.95
2022-11-25T03:15:09.682Z,6.94
2022-11-25T03:16:41.717Z,6.86
2022-11-25T03:18:13.684Z,6.86
2022-11-25T03:19:45.490Z,6.85
2022-11-25T03:21:17.303Z,6.84
2022-11-25T03:22:49.180Z,6.83
2022-11-25T03:24:21.002Z,6.82
2022-11-25T03:25:52.939Z,6.83
2022-11-25T03:27:27.998Z,6.83
2022-11-25T03:29:02.211Z,6.83
2022-11-25T03:32:09.519Z,6.82
2022-11-25T03:33:41.656Z,6.79
2022-11-25T03:35:13.863Z,6.78
2022-11-25T03:36:45.827Z,6.76
2022-11-25T03:38:17.758Z,6.76
2022-11-25T03:39:49.596Z,6.73
2022-11-25T03:41:21.362Z,6.72
2022-11-25T03:42:53.201Z,6.71
2022-11-25T03:44:25.335Z,6.71
2022-11-25T03:45:57.344Z,6.72
2022-11-25T03:47:29.316Z,6.74
2022-11-25T03:49:01.233Z,6.76
2022-11-25T03:50:33.137Z,6.76
2022-11-25T03:52:05.054Z,6.75
2022-11-25T03:53:36.951Z,6.75
2022-11-25T03:55:09.042Z,6.76
2022-11-25T03:56:40.970Z,6.77
2022-11-25T03:58:12.863Z,6.75
2022-11-25T03:59:44.716Z,6.76
2022-11-25T04:01:16.687Z,6.76
2022-11-25T04:02:48.605Z,6.77
2022-11-25T04:04:20.467Z,6.76
2022-11-25T04:05:52.366Z,6.75
2022-11-25T04:07:24.301Z,6.74
2022-11-25T04:08:56.272Z,6.73
2022-11-25T04:10:28.153Z,6.73
2022-11-25T04:12:18.477Z,6.73
2022-11-25T04:13:50.385Z,6.74
2022-11-25T04:15:22.321Z,6.74
2022-11-25T04:16:54.337Z,6.74
2022-11-25T04:18:26.313Z,6.81
2022-11-25T04:19:58.249Z,6.86
2022-11-25T04:21:30.147Z,6.89
2022-11-25T04:23:02.009Z,6.91
2022-11-25T04:24:34.185Z,6.93
2022-11-25T04:26:06.375Z,6.94
2022-11-25T04:27:38.362Z,6.97
2022-11-25T04:29:10.215Z,7.00
2022-11-25T04:30:42.293Z,7.04
2022-11-25T04:32:14.194Z,7.08
2022-11-25T04:33:51.101Z,7.12
2022-11-25T04:35:24.414Z,7.18
2022-11-25T04:36:56.329Z,7.22
2022-11-25T04:38:28.267Z,7.29
2022-11-25T04:40:00.250Z,7.30
2022-11-25T04:41:32.092Z,7.34
2022-11-25T04:43:09.148Z,7.39
2022-11-25T04:44:51.956Z,7.43
2022-11-25T04:46:29.559Z,7.48
2022-11-25T04:48:01.685Z,7.53
2022-11-25T04:49:33.598Z,7.59
2022-11-25T04:51:05.613Z,7.61
2022-11-25T04:52:37.467Z,7.62
2022-11-25T04:54:12.191Z,7.63
2022-11-25T04:55:47.968Z,7.67
2022-11-25T04:57:20.165Z,7.68
2022-11-25T04:59:10.889Z,7.70
2022-11-25T05:00:42.759Z,7.73
2022-11-25T05:02:21.893Z,7.72
2022-11-25T05:03:57.465Z,7.76
2022-11-25T05:05:29.702Z,7.77
2022-11-25T05:07:01.627Z,7.79
2022-11-25T05:08:33.546Z,7.80
2022-11-25T05:10:06.498Z,7.80
2022-11-25T05:11:38.601Z,7.84
2022-11-25T05:13:10.543Z,7.85
2022-11-25T05:14:42.420Z,7.86
2022-11-25T05:16:14.332Z,7.86
2022-11-25T05:17:46.327Z,7.87
2022-11-25T05:19:18.218Z,7.86
2022-11-25T05:20:50.104Z,7.88
2022-11-25T05:22:26.146Z,7.88
2022-11-25T05:23:58.031Z,7.89
2022-11-25T05:25:30.021Z,7.89
2022-11-25T05:27:05.110Z,7.91
2022-11-25T05:28:36.998Z,7.89
2022-11-25T05:30:10.504Z,7.90
2022-11-25T05:31:42.524Z,7.86
2022-11-25T05:33:14.519Z,7.87
2022-11-25T05:34:46.424Z,7.88
2022-11-25T05:36:18.394Z,7.89
2022-11-25T05:37:50.227Z,7.87
2022-11-25T05:39:22.085Z,7.86
2022-11-25T05:40:54.367Z,7.87
2022-11-25T05:42:26.266Z,7.86
2022-11-25T05:43:58.119Z,7.86
2022-11-25T05:45:29.979Z,7.90
2022-11-25T05:47:02.034Z,7.88
2022-11-25T05:48:36.899Z,7.87
2022-11-25T05:50:09.019Z,7.88
2022-11-25T05:51:40.894Z,7.88
2022-11-25T05:53:12.909Z,7.90
2022-11-25T05:54:44.903Z,7.88
2022-11-25T05:56:16.906Z,7.90
2022-11-25T05:57:48.946Z,7.85
2022-11-25T05:59:21.294Z,7.84
2022-11-25T06:00:53.617Z,7.85
2022-11-25T06:02:25.831Z,7.88
2022-11-25T06:04:01.407Z,7.86
2022-11-25T06:05:34.910Z,7.89
2022-11-25T06:07:07.825Z,7.89
2022-11-25T06:08:39.841Z,7.89
2022-11-25T06:10:11.849Z,7.91
2022-11-25T06:11:43.907Z,7.93
2022-11-25T06:13:15.823Z,7.88
2022-11-25T06:14:47.757Z,7.87
2022-11-25T06:16:20.881Z,7.88
2022-11-25T06:17:52.859Z,7.93
2022-11-25T06:19:24.748Z,7.93
2022-11-25T06:20:57.378Z,7.91
2022-11-25T06:22:29.237Z,7.94
2022-11-25T06:24:01.499Z,7.95
2022-11-25T06:25:33.756Z,7.91
2022-11-25T06:27:05.908Z,7.95
2022-11-25T06:30:09.988Z,7.89
2022-11-25T06:31:41.992Z,7.87
2022-11-25T06:33:13.948Z,7.95
2022-11-25T06:34:46.159Z,7.98
2022-11-25T06:36:18.519Z,7.99
2022-11-25T06:37:50.485Z,8.00
2022-11-25T06:39:22.592Z,8.00
2022-11-25T06:40:59.148Z,8.03
2022-11-25T06:42:32.328Z,8.00
2022-11-25T06:44:04.378Z,7.99
2022-11-25T06:45:36.353Z,7.98
2022-11-25T06:47:08.343Z,8.01
2022-11-25T06:48:40.164Z,8.02
2022-11-25T06:50:15.064Z,8.05
2022-11-25T06:51:47.019Z,8.04
2022-11-25T06:53:23.932Z,8.05
2022-11-25T06:54:56.176Z,8.04
2022-11-25T06:56:28.365Z,8.05
2022-11-25T06:58:27.875Z,8.06
2022-11-25T06:59:52.142Z,8.06
2022-11-25T07:01:25.362Z,8.07
2022-11-25T07:02:57.474Z,8.04
2022-11-25T07:04:29.610Z,8.04
2022-11-25T07:06:01.645Z,8.06
2022-11-25T07:07:33.630Z,8.07
2022-11-25T07:09:05.755Z,8.09
2022-11-25T07:10:37.750Z,8.14
2022-11-25T07:12:09.733Z,8.15
2022-11-25T07:13:41.762Z,8.16
2022-11-25T07:15:13.917Z,8.14
2022-11-25T07:16:46.142Z,8.16
2022-11-25T07:18:18.040Z,8.17
2022-11-25T07:19:49.928Z,8.16
2022-11-25T07:21:22.860Z,8.18
2022-11-25T07:22:54.738Z,8.21
2022-11-25T07:24:26.656Z,8.23
2022-11-25T07:26:18.158Z,8.24
2022-11-25T07:27:50.291Z,8.25
2022-11-25T07:31:27.030Z,8.24
2022-11-25T07:32:59.712Z,8.26
2022-11-25T07:34:31.995Z,8.28
2022-11-25T07:36:05.093Z,8.30
2022-11-25T07:37:37.219Z,8.31
2022-11-25T07:39:11.312Z,8.32
2022-11-25T07:40:43.370Z,8.32
2022-11-25T07:42:15.686Z,8.34
2022-11-25T07:43:48.611Z,8.34
2022-11-25T07:45:21.206Z,8.36
2022-11-25T07:46:53.272Z,8.37
2022-11-25T07:48:25.184Z,8.41
2022-11-25T07:49:57.876Z,8.43
2022-11-25T07:51:31.674Z,8.47
2022-11-25T07:53:03.753Z,8.46
2022-11-25T07:54:35.656Z,8.44
2022-11-25T07:56:07.889Z,8.45
2022-11-25T08:57:33.887Z,9.38
2022-11-25T08:59:05.771Z,9.40
2022-11-25T09:00:38.324Z,9.37
2022-11-25T09:02:13.758Z,9.42
2022-11-25T09:03:46.782Z,9.47
2022-11-25T09:05:19.018Z,9.48
2022-11-25T09:06:50.891Z,9.45
2022-11-25T09:08:26.314Z,9.47
2022-11-25T09:09:58.275Z,9.46
2022-11-25T09:11:30.551Z,9.50
2022-11-25T09:13:02.780Z,9.59
2022-11-25T09:14:34.997Z,9.67
2022-11-25T09:16:07.430Z,9.78
2022-11-25T09:17:42.521Z,9.88
2022-11-25T09:19:14.387Z,9.95
2022-11-25T09:20:46.677Z,10.04
2022-11-25T09:22:21.620Z,10.13
2022-11-25T09:23:54.400Z,10.19
2022-11-25T09:25:26.446Z,10.19
2022-11-25T09:26:58.411Z,10.27
2022-11-25T09:28:30.490Z,10.25
2022-11-25T09:30:02.452Z,10.29
2022-11-25T09:31:34.748Z,10.29
2022-11-25T09:33:06.898Z,10.26
2022-11-25T09:34:39.171Z,10.32
2022-11-25T09:36:12.166Z,10.40
2022-11-25T09:37:44.108Z,10.42
2022-11-25T09:39:16.151Z,10.52
2022-11-25T09:41:00.021Z,10.58
2022-11-25T09:42:59.569Z,10.67
2022-11-25T09:45:22.334Z,10.75
2022-11-25T09:47:05.303Z,10.85
2022-11-25T09:48:40.149Z,10.95
2022-11-25T09:50:14.819Z,10.97
2022-11-25T09:52:05.749Z,11.05
2022-11-25T09:53:57.532Z,11.10
2022-11-25T09:55:31.931Z,11.19
2022-11-25T09:57:05.511Z,11.22
2022-11-25T09:58:42.014Z,11.18
2022-11-25T10:00:17.653Z,11.15
2022-11-25T10:01:51.596Z,11.22
2022-11-25T10:03:43.344Z,11.22
2022-11-25T10:05:21.315Z,11.24
2022-11-25T10:06:55.805Z,11.26
2022-11-25T10:08:29.580Z,11.30
2022-11-25T10:10:02.274Z,11.23
2022-11-25T10:11:47.966Z,11.25
2022-11-25T10:13:21.964Z,11.20
2022-11-25T10:14:54.763Z,11.25
2022-11-25T10:18:04.470Z,11.18
2022-11-25T10:19:54.785Z,11.18
2022-11-25T10:21:26.687Z,11.24
2022-11-25T10:23:00.775Z,11.26
2022-11-25T10:24:34.965Z,11.27
2022-11-25T10:26:17.353Z,11.37
2022-11-25T10:28:02.320Z,11.43
2022-11-25T10:29:35.315Z,11.51
2022-11-25T10:31:11.802Z,11.54
2022-11-25T10:32:45.123Z,11.59
2022-11-25T10:34:30.918Z,11.58
2022-11-25T10:36:08.604Z,11.57
2022-11-25T10:37:41.387Z,11.60
2022-11-25T10:39:24.982Z,11.55
2022-11-25T10:40:57.272Z,11.52
2022-11-25T10:42:29.422Z,11.58
2022-11-25T10:44:01.413Z,11.59
2022-11-25T10:45:36.065Z,11.58
2022-11-25T10:47:16.651Z,11.67
2022-11-25T10:48:59.808Z,11.81
2022-11-25T10:50:35.577Z,11.87
2022-11-25T10:52:11.620Z,11.86
2022-11-25T10:53:43.784Z,11.81
2022-11-25T10:55:20.156Z,11.90
2022-11-25T10:56:55.184Z,11.99
2022-11-25T10:58:31.913Z,11.99
2022-11-25T11:00:05.155Z,11.97
2022-11-25T11:01:37.311Z,11.92
2022-11-25T11:03:22.980Z,11.87
2022-11-25T11:04:57.222Z,11.86
2022-11-25T11:06:39.793Z,11.91
2022-11-25T11:08:14.784Z,11.99
2022-11-25T11:09:48.781Z,12.03
2022-11-25T11:11:22.053Z,12.06
2022-11-25T11:13:00.754Z,12.10
2022-11-25T11:14:34.653Z,12.07
2022-11-25T11:16:21.364Z,12.02
2022-11-25T11:17:54.368Z,12.07
2022-11-25T11:19:30.205Z,12.13
2022-11-25T11:21:03.400Z,12.18
2022-11-25T11:22:36.310Z,12.15
2022-11-25T11:24:28.587Z,12.14
2022-11-25T11:26:07.403Z,12.09
2022-11-25T11:27:39.362Z,12.18
2022-11-25T11:29:15.129Z,12.16
2022-11-25T11:31:08.345Z,12.21
2022-11-25T11:32:40.521Z,12.26
2022-11-25T11:34:35.950Z,12.25
2022-11-25T11:36:13.377Z,12.33
2022-11-25T11:37:46.315Z,12.27
2022-11-25T11:39:22.648Z,12.30
2022-11-25T11:40:56.168Z,12.27
2022-11-25T11:42:37.305Z,12.26
2022-11-25T11:44:32.656Z,12.18
2022-11-25T11:46:23.353Z,12.29
2022-11-25T11:48:13.132Z,12.33
2022-11-25T11:49:48.475Z,12.33
2022-11-25T11:51:26.718Z,12.41
2022-11-25T11:53:02.919Z,12.44
2022-11-25T11:54:37.135Z,12.43
2022-11-25T11:56:36.672Z,12.25
2022-11-25T11:58:25.642Z,12.31
2022-11-25T12:00:00.138Z,12.30
2022-11-25T12:01:34.908Z,12.31
2022-11-25T12:03:20.021Z,12.18
2022-11-25T12:04:54.912Z,12.15
2022-11-25T12:06:28.983Z,12.23
2022-11-25T12:08:04.257Z,12.21
2022-11-25T12:09:43.877Z,12.29
2022-11-25T12:11:18.206Z,12.20
2022-11-25T12:12:52.697Z,12.00
2022-11-25T12:14:24.877Z,12.07
2022-11-25T12:16:09.499Z,12.22
2022-11-25T12:17:43.189Z,12.16
2022-11-25T12:19:34.035Z,12.01
2022-11-25T12:21:07.796Z,11.88
2022-11-25T12:22:49.090Z,11.79
2022-11-25T12:24:24.321Z,11.71
2022-11-25T12:25:58.475Z,11.73
2022-11-25T12:27:41.158Z,11.77
2022-11-25T12:29:14.567Z,11.66
2022-11-25T12:31:03.449Z,11.74
2022-11-25T12:32:37.128Z,11.90
2022-11-25T12:34:29.422Z,11.98
2022-11-25T12:36:05.563Z,12.02
2022-11-25T12:37:45.508Z,11.97
2022-11-25T12:39:21.204Z,11.82
2022-11-25T12:40:56.224Z,11.85
2022-11-25T12:42:28.169Z,11.97
2022-11-25T12:44:12.794Z,12.04
2022-11-25T12:45:45.401Z,11.97
2022-11-25T12:47:17.551Z,12.00
2022-11-25T12:48:49.917Z,12.00
2022-11-25T12:50:27.326Z,11.93
2022-11-25T12:52:11.411Z,12.02
2022-11-25T12:54:03.498Z,12.18
2022-11-25T12:55:35.360Z,12.22
2022-11-25T12:57:26.205Z,12.20
2022-11-25T12:59:11.200Z,12.17
2022-11-25T13:00:49.328Z,12.15
2022-11-25T13:02:29.927Z,12.16
2022-11-25T13:04:16.800Z,12.09
2022-11-25T13:05:55.326Z,12.13
2022-11-25T13:07:28.286Z,11.97
2022-11-25T13:09:19.171Z,11.82
2022-11-25T13:10:54.261Z,11.73
2022-11-25T13:12:32.372Z,11.74
2022-11-25T13:14:05.843Z,11.63
2022-11-25T13:15:44.779Z,11.64
2022-11-25T13:17:17.466Z,11.55
2022-11-25T13:18:49.892Z,11.59
2022-11-25T13:20:24.629Z,11.58
2022-11-25T13:21:57.734Z,11.53
2022-11-25T13:23:30.244Z,11.51
2022-11-25T13:25:02.700Z,11.46
2022-11-25T13:26:38.857Z,11.51
2022-11-25T13:28:29.704Z,11.53
2022-11-25T13:30:04.917Z,11.46
2022-11-25T13:31:59.002Z,11.37
2022-11-25T13:33:43.409Z,11.29
2022-11-25T13:35:29.939Z,11.31
2022-11-25T13:37:25.304Z,11.28
2022-11-25T13:38:57.263Z,11.12
2022-11-25T13:40:30.836Z,11.05
2022-11-25T13:42:13.319Z,10.92
2022-11-25T13:43:54.147Z,10.88
2022-11-25T13:45:30.480Z,10.84
2022-11-25T13:47:20.896Z,10.76
2022-11-25T13:48:52.873Z,10.73
2022-11-25T13:50:36.800Z,10.68
2022-11-25T13:52:26.243Z,10.65
2022-11-25T13:53:58.903Z,10.60
2022-11-25T13:55:38.190Z,10.54
2022-11-25T13:57:13.271Z,10.53
2022-11-25T13:59:04.326Z,10.58
2022-11-25T14:00:36.394Z,10.52
2022-11-25T14:02:25.551Z,10.37
2022-11-25T14:03:57.962Z,10.32
2022-11-25T14:05:33.133Z,10.38
2022-11-25T14:07:15.672Z,10.36
2022-11-25T14:09:06.915Z,10.35
2022-11-25T14:10:46.198Z,10.30
2022-11-25T14:12:33.472Z,10.25
2022-11-25T14:14:19.462Z,10.22
2022-11-25T14:16:00.010Z,10.20
2022-11-25T14:17:36.096Z,10.15
2022-11-25T14:19:50.603Z,10.06
2022-11-25T14:21:37.672Z,10.10
2022-11-25T14:23:09.702Z,10.05
2022-11-25T14:26:48.118Z,9.91
2022-11-25T14:28:37.334Z,9.95
2022-11-25T14:30:09.674Z,9.87
2022-11-25T14:31:45.100Z,9.85
2022-11-25T14:33:18.006Z,9.85
2022-11-25T14:34:51.886Z,9.83
2022-11-25T14:36:31.486Z,9.84
2022-11-25T14:38:08.435Z,9.86
2022-11-25T14:39:58.945Z,9.82
2022-11-25T14:41:33.147Z,9.77
2022-11-25T14:43:24.100Z,9.76
2022-11-25T14:44:57.621Z,9.64
2022-11-25T14:46:29.701Z,9.70
2022-11-25T14:48:14.901Z,9.69
2022-11-25T14:51:46.112Z,9.61
2022-11-25T14:53:19.768Z,9.62
2022-11-25T14:54:52.337Z,9.60
2022-11-25T14:56:26.621Z,9.58
2022-11-25T14:57:58.686Z,9.48
2022-11-25T14:59:30.864Z,9.46
2022-11-25T15:01:07.439Z,9.44
2022-11-25T15:02:43.139Z,9.41
2022-11-25T15:04:19.428Z,9.36
2022-11-25T15:05:58.274Z,9.35
2022-11-25T15:07:31.443Z,9.26
2022-11-25T15:09:20.634Z,9.23
2022-11-25T15:10:52.745Z,9.24
2022-11-25T15:12:24.947Z,9.20
2022-11-25T15:14:05.315Z,9.15
2022-11-25T15:15:37.295Z,9.14
2022-11-25T15:17:09.865Z,9.05
2022-11-25T15:19:01.621Z,9.06
2022-11-25T15:20:35.680Z,9.08
2022-11-25T15:22:22.451Z,9.06
2022-11-25T15:23:55.182Z,9.05
2022-11-25T15:25:27.374Z,8.98
2022-11-25T15:27:00.744Z,8.95
2022-11-25T15:28:36.678Z,8.92
2022-11-25T15:30:24.884Z,8.88
2022-11-25T15:31:56.963Z,8.81
2022-11-25T15:33:29.700Z,8.78
2022-11-25T15:35:02.051Z,8.78
2022-11-25T15:36:34.213Z,8.77
2022-11-25T15:38:38.855Z,8.74
2022-11-25T15:40:29.283Z,8.74
2022-11-25T15:42:07.592Z,8.72
2022-11-25T15:43:43.988Z,8.69
2022-11-25T15:45:18.859Z,8.67
2022-11-25T15:46:55.407Z,8.65
2022-11-25T15:48:30.064Z,8.62
2022-11-25T15:50:06.573Z,8.60
2022-11-25T15:51:42.187Z,8.58
2022-11-25T15:53:23.745Z,8.53
2022-11-25T15:55:02.709Z,8.49
2022-11-25T15:56:36.519Z,8.43
2022-11-25T15:58:12.475Z,8.37
2022-11-25T15:59:49.111Z,8.30
2022-11-25T16:01:24.389Z,8.24
2022-11-25T16:02:58.365Z,8.19
2022-11-25T16:04:30.415Z,8.13
2022-11-25T16:06:02.782Z,8.07
2022-11-25T16:07:34.961Z,8.03
2022-11-25T16:09:18.886Z,7.95
2022-11-25T16:10:52.317Z,7.77
2022-11-25T16:12:24.446Z,7.59
2022-11-25T16:14:04.685Z,7.41
2022-11-25T16:15:44.035Z,7.24
2022-11-25T16:17:16.177Z,7.13
2022-11-25T16:19:10.571Z,7.03
2022-11-25T16:20:55.706Z,6.93
2022-11-25T16:22:27.896Z,6.86
2022-11-25T16:24:00.840Z,6.77
2022-11-25T16:25:32.865Z,6.71
2022-11-25T16:27:05.199Z,6.68
2022-11-25T16:28:37.300Z,6.64
2022-11-25T16:30:18.069Z,6.56
2022-11-25T16:31:50.314Z,6.48
2022-11-25T16:33:22.465Z,6.42
2022-11-25T16:34:57.924Z,6.37
2022-11-25T16:36:30.048Z,6.27
2022-11-25T16:38:02.184Z,6.19
2022-11-25T16:39:37.651Z,6.16
2022-11-25T16:41:10.822Z,6.12
2022-11-25T16:42:43.300Z,6.09
2022-11-25T16:44:18.540Z,6.00
2022-11-25T16:45:51.766Z,5.98
2022-11-25T16:47:24.653Z,5.97
2022-11-25T16:48:57.015Z,5.97
2022-11-25T16:50:29.262Z,5.96
2022-11-25T16:52:01.469Z,5.88
2022-11-25T16:53:33.412Z,5.79
2022-11-25T16:55:05.766Z,5.74
2022-11-25T16:56:38.329Z,5.66
2022-11-25T16:58:18.103Z,5.61
2022-11-25T16:59:53.244Z,5.53
2022-11-25T17:01:28.207Z,5.52
2022-11-25T17:03:00.502Z,5.50
2022-11-25T17:04:32.551Z,5.50
2022-11-25T17:06:09.660Z,5.47
2022-11-25T17:09:15.301Z,5.43
2022-11-25T17:10:47.577Z,5.38
2022-11-25T17:12:23.531Z,5.34
2022-11-25T17:13:55.937Z,5.28
2022-11-25T17:15:31.326Z,5.21
2022-11-25T17:17:05.532Z,5.13
2022-11-25T17:18:38.058Z,5.06
2022-11-25T17:20:16.971Z,5.01
2022-11-25T17:21:49.410Z,4.91
2022-11-25T17:23:22.929Z,4.88
2022-11-25T17:24:55.429Z,4.85
2022-11-25T17:26:38.034Z,4.84
2022-11-25T17:28:11.327Z,4.88
2022-11-25T17:29:43.847Z,4.86
2022-11-25T17:31:16.335Z,4.85
2022-11-25T17:32:48.705Z,4.88
2022-11-25T17:34:20.879Z,4.89
2022-11-25T17:35:53.098Z,4.88
2022-11-25T17:39:04.966Z,4.88
2022-11-25T17:40:38.469Z,4.89
2022-11-25T17:42:14.185Z,4.95
2022-11-25T17:43:47.133Z,4.98
2022-11-25T17:45:20.189Z,4.97
2022-11-25T17:46:52.693Z,4.99
2022-11-25T17:48:24.922Z,5.06
2022-11-25T17:49:58.431Z,5.10
2022-11-25T17:51:30.461Z,5.13
2022-11-25T17:53:02.528Z,5.14
2022-11-25T17:54:34.725Z,5.12
2022-11-25T17:56:18.929Z,5.11
2022-11-25T17:57:50.856Z,5.13
2022-11-25T17:59:24.523Z,5.15
2022-11-25T18:00:56.580Z,5.16
2022-11-25T18:02:31.883Z,5.12
2022-11-25T18:04:17.477Z,5.06
2022-11-25T18:05:49.740Z,4.99
2022-11-25T18:08:53.653Z,5.01
2022-11-25T18:10:26.814Z,5.03
2022-11-25T18:11:59.924Z,5.05
2022-11-25T18:13:32.787Z,5.10
2022-11-25T18:15:08.672Z,5.12
2022-11-25T18:16:42.146Z,5.17
2022-11-25T18:18:20.756Z,5.18
2022-11-25T18:19:55.339Z,5.18
2022-11-25T18:21:27.965Z,5.22
2022-11-25T18:23:00.593Z,5.22
2022-11-25T18:24:32.662Z,5.24
2022-11-25T18:26:04.855Z,5.25
2022-11-25T18:27:36.846Z,5.24
2022-11-25T18:29:12.457Z,5.24
2022-11-25T18:30:44.474Z,5.27
2022-11-25T18:32:16.755Z,5.26
2022-11-25T18:33:48.886Z,5.31
2022-11-25T18:35:25.116Z,5.32
2022-11-25T18:36:57.353Z,5.35
2022-11-25T18:38:29.733Z,5.40
2022-11-25T18:40:01.757Z,5.46
2022-11-25T18:41:33.639Z,5.49
2022-11-25T18:43:06.309Z,5.52
2022-11-25T18:44:42.590Z,5.55
2022-11-25T18:46:15.396Z,5.58
2022-11-25T18:47:47.920Z,5.61
2022-11-25T18:49:19.920Z,5.61
2022-11-25T18:50:52.986Z,5.63
2022-11-25T18:52:25.456Z,5.66
2022-11-25T18:53:57.347Z,5.67
2022-11-25T18:55:29.348Z,5.70
2022-11-25T18:57:01.762Z,5.68
2022-11-25T18:58:33.903Z,5.68
2022-11-25T19:00:31.116Z,5.69
2022-11-25T19:01:59.597Z,5.69
2022-11-25T19:03:31.676Z,5.72
2022-11-25T19:05:06.729Z,5.76
2022-11-25T19:06:38.732Z,5.80
2022-11-25T19:08:10.997Z,5.86
2022-11-25T19:09:43.326Z,5.91
2022-11-25T19:11:17.235Z,5.94
2022-11-25T19:12:50.808Z,5.96
2022-11-25T19:14:30.300Z,5.98
2022-11-25T19:16:06.648Z,5.98
2022-11-25T19:17:38.690Z,6.05
2022-11-25T19:19:13.904Z,6.09
2022-11-25T19:20:46.092Z,6.12
2022-11-25T19:22:19.765Z,6.15
2022-11-25T19:23:51.924Z,6.17
2022-11-25T19:25:24.164Z,6.22
2022-11-25T19:26:56.967Z,6.27
2022-11-25T19:28:29.242Z,6.33
2022-11-25T19:30:01.322Z,6.34
2022-11-25T19:31:33.403Z,6.34
2022-11-25T19:33:05.436Z,6.35
2022-11-25T19:34:38.940Z,6.41
2022-11-25T19:36:13.680Z,6.44
2022-11-25T19:37:45.804Z,6.48
2022-11-25T19:39:19.017Z,6.49
2022-11-25T19:40:51.129Z,6.51
2022-11-25T19:42:26.074Z,6.54
2022-11-25T19:43:58.097Z,6.55
2022-11-25T19:45:31.494Z,6.57
2022-11-25T19:47:19.210Z,6.56
2022-11-25T19:48:51.159Z,6.56
2022-11-25T19:50:24.027Z,6.58
2022-11-25T19:51:56.071Z,6.58
2022-11-25T19:53:33.509Z,6.58
2022-11-25T19:55:16.025Z,6.58
2022-11-25T19:56:47.976Z,6.58
2022-11-25T19:58:19.871Z,6.54
2022-11-25T19:59:51.798Z,6.51
2022-11-25T20:01:25.047Z,6.46
2022-11-25T20:02:57.259Z,6.45
2022-11-25T20:04:29.243Z,6.47
2022-11-25T20:06:01.184Z,6.52
2022-11-25T20:07:33.212Z,6.47
2022-11-25T20:09:08.133Z,6.44
2022-11-25T20:10:40.292Z,6.44
2022-11-25T20:12:15.298Z,6.44
2022-11-25T20:13:47.846Z,6.42
2022-11-25T20:15:20.365Z,6.40
2022-11-25T20:16:52.769Z,6.41
2022-11-25T20:18:25.184Z,6.40
2022-11-25T20:19:58.770Z,6.40
2022-11-25T20:21:33.620Z,6.41
2022-11-25T20:23:11.068Z,6.40
2022-11-25T20:24:43.135Z,6.39
2022-11-25T20:26:16.593Z,6.34
2022-11-25T20:27:48.494Z,6.30
2022-11-25T20:29:24.548Z,6.27
2022-11-25T20:31:02.250Z,6.20
2022-11-25T20:32:36.703Z,6.18
2022-11-25T20:34:09.143Z,6.09
2022-11-25T20:35:43.001Z,5.91
2022-11-25T20:37:16.447Z,5.82
2022-11-25T20:38:53.157Z,5.78
2022-11-25T20:40:26.069Z,5.70
2022-11-25T20:41:59.013Z,5.66
2022-11-25T20:43:35.086Z,5.64
2022-11-25T20:45:10.275Z,5.60
2022-11-25T20:46:42.269Z,5.55
2022-11-25T20:48:14.263Z,5.53
2022-11-25T20:49:46.871Z,5.50
2022-11-25T20:51:21.711Z,5.49
2022-11-25T20:52:53.807Z,5.43
2022-11-25T20:54:25.948Z,5.37
2022-11-25T20:55:57.848Z,5.27
2022-11-25T20:57:29.862Z,5.19
2022-11-25T20:59:01.944Z,5.16
2022-11-25T21:00:34.158Z,5.10
2022-11-25T21:02:06.220Z,4.97
2022-11-25T21:03:38.373Z,4.88
2022-11-25T21:05:10.440Z,4.85
2022-11-25T21:06:42.299Z,4.81
2022-11-25T21:08:19.002Z,4.79
2022-11-25T21:09:51.213Z,4.77
2022-11-25T21:11:23.429Z,4.74
2022-11-25T21:12:55.782Z,4.73
2022-11-25T21:14:27.713Z,4.72
2022-11-25T21:15:59.975Z,4.71
2022-11-25T21:17:31.900Z,4.68
2022-11-25T21:20:39.470Z,4.60
2022-11-25T21:22:13.599Z,4.56
2022-11-25T21:23:45.782Z,4.52
2022-11-25T21:25:18.587Z,4.48
2022-11-25T21:26:50.845Z,4.42
2022-11-25T21:28:24.738Z,4.39
2022-11-25T21:29:59.625Z,4.34
2022-11-25T21:31:31.543Z,4.29
2022-11-25T21:33:06.907Z,4.24
2022-11-25T21:34:39.183Z,4.13
2022-11-25T21:36:21.535Z,4.03
2022-11-25T21:37:53.439Z,3.92
2022-11-25T21:39:30.575Z,3.83
2022-11-25T21:41:02.462Z,3.75
2022-11-25T21:42:34.319Z,3.70
2022-11-25T21:44:06.658Z,3.67
2022-11-25T21:45:38.603Z,3.62
2022-11-25T21:47:20.886Z,3.60
2022-11-25T21:48:52.918Z,3.62
2022-11-25T21:50:29.729Z,3.61
2022-11-25T21:52:01.666Z,3.62
2022-11-25T21:53:37.281Z,3.56
2022-11-25T21:55:11.736Z,3.51
2022-11-25T21:56:46.327Z,3.45
2022-11-25T21:58:22.218Z,3.43
2022-11-25T21:59:54.282Z,3.39
2022-11-25T22:01:26.418Z,3.30
2022-11-25T22:02:58.508Z,3.25
2022-11-25T22:04:30.379Z,3.23
2022-11-25T22:06:02.240Z,3.20
2022-11-25T22:07:34.139Z,3.14
2022-11-25T22:09:06.081Z,3.11
2022-11-25T22:10:38.478Z,3.13
2022-11-25T22:12:29.569Z,3.12
2022-11-25T22:14:02.813Z,3.12
2022-11-25T22:15:34.775Z,3.12
2022-11-25T22:17:17.287Z,3.10
2022-11-25T22:18:49.299Z,3.12
2022-11-25T22:20:26.900Z,3.12
2022-11-25T22:21:58.991Z,3.10
2022-11-25T22:23:30.864Z,2.99
2022-11-25T22:25:03.262Z,2.91
2022-11-25T22:26:35.171Z,2.89
2022-11-25T22:28:10.039Z,2.85
2022-11-25T22:29:41.841Z,2.85
2022-11-25T22:31:13.769Z,2.87
2022-11-25T22:32:46.408Z,2.83
2022-11-25T22:34:19.135Z,2.80
2022-11-25T22:35:51.105Z,2.69